Terminal Aerodrome Forecast
Issued by NWS

Home | Current Version | Previous Version | Text Only | Print | Product List | Glossary On
Versions: 1 2 3 4 5 6 7 8 9 10 11 12 13
000
FTUS42 TJSJ 301700
TAFJBQ
TAF
TJBQ 301727Z 3018/3118 03009KT P6SM VCSH SCT025 SCT050
      TEMPO 3019/3021 4SM TSRA SCT025CB BKN040
     FM302230 11005KT P6SM FEW025 SCT060
     FM311630 04010KT P6SM VCTS SCT030CB SCT050=

USA.gov is the U.S. government's official web portal to all federal, state and local government web resources and services.